sensor_id;sensor_type;location;lat;lon;timestamp;pressure;altitude;pressure_sealevel;temperature
19948;BMP180;10135;50.702;7.276;2022-09-12T05:30:44;99477.00;;;18.30
19948;BMP180;10135;50.702;7.276;2022-09-12T05:32:44;99478.00;;;18.30
19948;BMP180;10135;50.702;7.276;2022-09-12T05:34:45;99483.00;;;18.30
19948;BMP180;10135;50.702;7.276;2022-09-12T05:36:46;99482.00;;;18.30
19948;BMP180;10135;50.702;7.276;2022-09-12T05:38:47;99478.00;;;18.30
19948;BMP180;10135;50.702;7.276;2022-09-12T05:40:47;99481.00;;;18.30
19948;BMP180;10135;50.702;7.276;2022-09-12T05:42:48;99479.00;;;18.30
19948;BMP180;10135;50.702;7.276;2022-09-12T05:44:49;99487.00;;;18.30
19948;BMP180;10135;50.702;7.276;2022-09-12T05:46:49;99489.00;;;18.30
19948;BMP180;10135;50.702;7.276;2022-09-12T05:48:53;99483.00;;;18.30
19948;BMP180;10135;50.702;7.276;2022-09-12T05:51:02;99480.00;;;18.30
19948;BMP180;10135;50.702;7.276;2022-09-12T05:53:03;99473.00;;;18.40
19948;BMP180;10135;50.702;7.276;2022-09-12T05:55:05;99481.00;;;18.40
19948;BMP180;10135;50.702;7.276;2022-09-12T05:57:05;99484.00;;;18.40
19948;BMP180;10135;50.702;7.276;2022-09-12T05:59:27;99483.00;;;18.50
19948;BMP180;10135;50.702;7.276;2022-09-12T06:01:30;99485.00;;;18.60
19948;BMP180;10135;50.702;7.276;2022-09-12T06:03:31;99480.00;;;18.70
19948;BMP180;10135;50.702;7.276;2022-09-12T06:05:33;99487.00;;;18.90
19948;BMP180;10135;50.702;7.276;2022-09-12T06:07:34;99491.00;;;19.20
19948;BMP180;10135;50.702;7.276;2022-09-12T06:09:35;99488.00;;;19.40
19948;BMP180;10135;50.702;7.276;2022-09-12T06:11:38;99487.00;;;19.60
19948;BMP180;10135;50.702;7.276;2022-09-12T06:13:42;99486.00;;;19.70
19948;BMP180;10135;50.702;7.276;2022-09-12T06:15:43;99492.00;;;19.80
19948;BMP180;10135;50.702;7.276;2022-09-12T06:17:44;99491.00;;;19.90
19948;BMP180;10135;50.702;7.276;2022-09-12T06:19:48;99491.00;;;19.90
19948;BMP180;10135;50.702;7.276;2022-09-12T06:21:51;99493.00;;;20.00
19948;BMP180;10135;50.702;7.276;2022-09-12T06:23:54;99497.00;;;20.00
19948;BMP180;10135;50.702;7.276;2022-09-12T06:25:54;99487.00;;;20.00
19948;BMP180;10135;50.702;7.276;2022-09-12T06:27:55;99492.00;;;20.00
19948;BMP180;10135;50.702;7.276;2022-09-12T06:29:56;99486.00;;;20.00
19948;BMP180;10135;50.702;7.276;2022-09-12T06:31:57;99494.00;;;20.00
19948;BMP180;10135;50.702;7.276;2022-09-12T06:34:07;99488.00;;;20.00
19948;BMP180;10135;50.702;7.276;2022-09-12T06:36:12;99492.00;;;20.00
19948;BMP180;10135;50.702;7.276;2022-09-12T06:38:13;99492.00;;;20.00
19948;BMP180;10135;50.702;7.276;2022-09-12T06:40:14;99492.00;;;19.90
19948;BMP180;10135;50.702;7.276;2022-09-12T06:42:15;99496.00;;;19.90
19948;BMP180;10135;50.702;7.276;2022-09-12T06:44:21;99498.00;;;19.90
19948;BMP180;10135;50.702;7.276;2022-09-12T06:46:23;99495.00;;;19.90
19948;BMP180;10135;50.702;7.276;2022-09-12T06:48:24;99493.00;;;19.90
19948;BMP180;10135;50.702;7.276;2022-09-12T06:50:25;99489.00;;;19.90
19948;BMP180;10135;50.702;7.276;2022-09-12T06:52:26;99488.00;;;19.90
19948;BMP180;10135;50.702;7.276;2022-09-12T06:54:28;99488.00;;;19.90
19948;BMP180;10135;50.702;7.276;2022-09-12T06:56:29;99489.00;;;19.90
19948;BMP180;10135;50.702;7.276;2022-09-12T06:58:30;99489.00;;;19.90
19948;BMP180;10135;50.702;7.276;2022-09-12T07:00:31;99495.00;;;19.90
19948;BMP180;10135;50.702;7.276;2022-09-12T07:02:32;99495.00;;;19.90
19948;BMP180;10135;50.702;7.276;2022-09-12T07:04:33;99495.00;;;20.00
19948;BMP180;10135;50.702;7.276;2022-09-12T07:06:42;99495.00;;;20.00
19948;BMP180;10135;50.702;7.276;2022-09-12T07:08:44;99494.00;;;20.00
19948;BMP180;10135;50.702;7.276;2022-09-12T07:10:45;99491.00;;;20.00
19948;BMP180;10135;50.702;7.276;2022-09-12T07:12:45;99497.00;;;20.00
19948;BMP180;10135;50.702;7.276;2022-09-12T07:14:47;99492.00;;;20.00
19948;BMP180;10135;50.702;7.276;2022-09-12T07:16:47;99488.00;;;20.10
19948;BMP180;10135;50.702;7.276;2022-09-12T07:18:55;99493.00;;;20.10
19948;BMP180;10135;50.702;7.276;2022-09-12T07:21:02;99492.00;;;20.10
19948;BMP180;10135;50.702;7.276;2022-09-12T07:23:03;99489.00;;;20.10
19948;BMP180;10135;50.702;7.276;2022-09-12T07:25:04;99493.00;;;20.20
19948;BMP180;10135;50.702;7.276;2022-09-12T07:27:04;99493.00;;;20.20
19948;BMP180;10135;50.702;7.276;2022-09-12T07:29:05;99493.00;;;20.20
19948;BMP180;10135;50.702;7.276;2022-09-12T07:33:10;99498.00;;;20.30
19948;BMP180;10135;50.702;7.276;2022-09-12T07:35:11;99494.00;;;20.40
19948;BMP180;10135;50.702;7.276;2022-09-12T07:37:11;99495.00;;;20.40
19948;BMP180;10135;50.702;7.276;2022-09-12T07:39:12;99492.00;;;20.50
19948;BMP180;10135;50.702;7.276;2022-09-12T07:41:18;99497.00;;;20.50
19948;BMP180;10135;50.702;7.276;2022-09-12T07:43:19;99501.00;;;20.60
19948;BMP180;10135;50.702;7.276;2022-09-12T07:45:19;99499.00;;;20.70
19948;BMP180;10135;50.702;7.276;2022-09-12T07:47:20;99496.00;;;20.70
19948;BMP180;10135;50.702;7.276;2022-09-12T07:49:20;99494.00;;;20.80
19948;BMP180;10135;50.702;7.276;2022-09-12T07:51:22;99501.00;;;20.80
19948;BMP180;10135;50.702;7.276;2022-09-12T07:53:23;99506.00;;;20.90
19948;BMP180;10135;50.702;7.276;2022-09-12T07:55:24;99502.00;;;20.90
19948;BMP180;10135;50.702;7.276;2022-09-12T07:57:25;99507.00;;;21.00
19948;BMP180;10135;50.702;7.276;2022-09-12T07:59:25;99509.00;;;21.00
19948;BMP180;10135;50.702;7.276;2022-09-12T08:01:27;99508.00;;;21.10
19948;BMP180;10135;50.702;7.276;2022-09-12T08:03:28;99507.00;;;21.10
19948;BMP180;10135;50.702;7.276;2022-09-12T08:05:29;99505.00;;;21.20
19948;BMP180;10135;50.702;7.276;2022-09-12T08:07:29;99504.00;;;21.20
19948;BMP180;10135;50.702;7.276;2022-09-12T08:09:30;99503.00;;;21.30
19948;BMP180;10135;50.702;7.276;2022-09-12T08:11:30;99509.00;;;21.30
19948;BMP180;10135;50.702;7.276;2022-09-12T08:13:34;99502.00;;;21.30
19948;BMP180;10135;50.702;7.276;2022-09-12T08:15:35;99499.00;;;21.40
19948;BMP180;10135;50.702;7.276;2022-09-12T08:17:35;99498.00;;;21.40
19948;BMP180;10135;50.702;7.276;2022-09-12T08:19:36;99507.00;;;21.40
19948;BMP180;10135;50.702;7.276;2022-09-12T08:21:38;99508.00;;;21.50
19948;BMP180;10135;50.702;7.276;2022-09-12T08:23:39;99507.00;;;21.50
19948;BMP180;10135;50.702;7.276;2022-09-12T08:25:39;99504.00;;;21.60
19948;BMP180;10135;50.702;7.276;2022-09-12T08:27:41;99511.00;;;21.60
19948;BMP180;10135;50.702;7.276;2022-09-12T08:29:42;99509.00;;;21.60
19948;BMP180;10135;50.702;7.276;2022-09-12T08:31:43;99516.00;;;21.70
19948;BMP180;10135;50.702;7.276;2022-09-12T08:33:44;99513.00;;;21.70
19948;BMP180;10135;50.702;7.276;2022-09-12T08:35:45;99513.00;;;21.70
19948;BMP180;10135;50.702;7.276;2022-09-12T08:37:46;99507.00;;;21.80
19948;BMP180;10135;50.702;7.276;2022-09-12T08:39:47;99506.00;;;21.90
19948;BMP180;10135;50.702;7.276;2022-09-12T08:42:04;99507.00;;;21.90
19948;BMP180;10135;50.702;7.276;2022-09-12T08:46:23;99502.00;;;22.00
19948;BMP180;10135;50.702;7.276;2022-09-12T08:48:26;99509.00;;;22.00
19948;BMP180;10135;50.702;7.276;2022-09-12T08:50:27;99500.00;;;22.10
19948;BMP180;10135;50.702;7.276;2022-09-12T08:53:14;99507.00;;;22.10
19948;BMP180;10135;50.702;7.276;2022-09-12T08:57:35;99495.00;;;22.20
19948;BMP180;10135;50.702;7.276;2022-09-12T08:59:42;99501.00;;;22.30
19948;BMP180;10135;50.702;7.276;2022-09-12T09:01:47;99504.00;;;22.40
19948;BMP180;10135;50.702;7.276;2022-09-12T09:04:18;99500.00;;;22.40
19948;BMP180;10135;50.702;7.276;2022-09-12T09:12:06;99496.00;;;22.70
19948;BMP180;10135;50.702;7.276;2022-09-12T09:16:43;99502.00;;;22.80
19948;BMP180;10135;50.702;7.276;2022-09-12T09:18:47;99496.00;;;22.90
19948;BMP180;10135;50.702;7.276;2022-09-12T09:20:58;99496.00;;;22.90
19948;BMP180;10135;50.702;7.276;2022-09-12T09:25:41;99496.00;;;23.00
19948;BMP180;10135;50.702;7.276;2022-09-12T09:27:57;99497.00;;;23.10
19948;BMP180;10135;50.702;7.276;2022-09-12T09:29:58;99493.00;;;23.10
19948;BMP180;10135;50.702;7.276;2022-09-12T09:32:09;99488.00;;;23.10
19948;BMP180;10135;50.702;7.276;2022-09-12T09:34:22;99481.00;;;23.20
19948;BMP180;10135;50.702;7.276;2022-09-12T09:36:55;99480.00;;;23.20
19948;BMP180;10135;50.702;7.276;2022-09-12T09:39:25;99480.00;;;23.30
19948;BMP180;10135;50.702;7.276;2022-09-12T09:43:48;99480.00;;;23.40
19948;BMP180;10135;50.702;7.276;2022-09-12T09:45:50;99471.00;;;23.40
19948;BMP180;10135;50.702;7.276;2022-09-12T09:50:15;99459.00;;;23.50
19948;BMP180;10135;50.702;7.276;2022-09-12T09:52:25;99462.00;;;23.50
19948;BMP180;10135;50.702;7.276;2022-09-12T09:54:55;99467.00;;;23.60
19948;BMP180;10135;50.702;7.276;2022-09-12T09:56:56;99464.00;;;23.70
19948;BMP180;10135;50.702;7.276;2022-09-12T10:01:17;99456.00;;;23.80
19948;BMP180;10135;50.702;7.276;2022-09-12T10:03:29;99455.00;;;23.80
19948;BMP180;10135;50.702;7.276;2022-09-12T10:05:44;99459.00;;;23.90
19948;BMP180;10135;50.702;7.276;2022-09-12T10:07:51;99460.00;;;23.90
19948;BMP180;10135;50.702;7.276;2022-09-12T10:10:15;99465.00;;;24.00
19948;BMP180;10135;50.702;7.276;2022-09-12T10:12:27;99460.00;;;24.10
19948;BMP180;10135;50.702;7.276;2022-09-12T10:14:36;99454.00;;;24.10
19948;BMP180;10135;50.702;7.276;2022-09-12T10:16:51;99456.00;;;24.10
19948;BMP180;10135;50.702;7.276;2022-09-12T10:18:55;99448.00;;;24.20
19948;BMP180;10135;50.702;7.276;2022-09-12T10:20:56;99446.00;;;24.30
19948;BMP180;10135;50.702;7.276;2022-09-12T10:23:01;99455.00;;;24.30
19948;BMP180;10135;50.702;7.276;2022-09-12T10:25:14;99451.00;;;24.40
19948;BMP180;10135;50.702;7.276;2022-09-12T10:27:21;99449.00;;;24.50
19948;BMP180;10135;50.702;7.276;2022-09-12T10:29:34;99451.00;;;24.60
19948;BMP180;10135;50.702;7.276;2022-09-12T10:31:58;99448.00;;;24.60
19948;BMP180;10135;50.702;7.276;2022-09-12T10:33:59;99439.00;;;24.70
19948;BMP180;10135;50.702;7.276;2022-09-12T10:36:01;99437.00;;;24.80
19948;BMP180;10135;50.702;7.276;2022-09-12T10:38:16;99444.00;;;24.80
19948;BMP180;10135;50.702;7.276;2022-09-12T10:40:37;99434.00;;;24.90
19948;BMP180;10135;50.702;7.276;2022-09-12T10:43:16;99434.00;;;25.00
19948;BMP180;10135;50.702;7.276;2022-09-12T10:45:37;99438.00;;;25.00
19948;BMP180;10135;50.702;7.276;2022-09-12T10:47:38;99424.00;;;25.10
19948;BMP180;10135;50.702;7.276;2022-09-12T10:49:39;99425.00;;;25.10
19948;BMP180;10135;50.702;7.276;2022-09-12T10:51:39;99425.00;;;25.10
19948;BMP180;10135;50.702;7.276;2022-09-12T10:53:43;99425.00;;;25.20
19948;BMP180;10135;50.702;7.276;2022-09-12T10:56:06;99424.00;;;25.20
19948;BMP180;10135;50.702;7.276;2022-09-12T11:00:46;99415.00;;;25.20
19948;BMP180;10135;50.702;7.276;2022-09-12T11:03:04;99427.00;;;25.30
19948;BMP180;10135;50.702;7.276;2022-09-12T11:05:32;99427.00;;;25.30
19948;BMP180;10135;50.702;7.276;2022-09-12T11:07:47;99425.00;;;25.40
19948;BMP180;10135;50.702;7.276;2022-09-12T11:10:22;99423.00;;;25.40
19948;BMP180;10135;50.702;7.276;2022-09-12T11:22:51;99407.00;;;25.60
19948;BMP180;10135;50.702;7.276;2022-09-12T11:25:27;99396.00;;;25.60
19948;BMP180;10135;50.702;7.276;2022-09-12T11:30:23;99390.00;;;25.70
19948;BMP180;10135;50.702;7.276;2022-09-12T11:32:59;99388.00;;;25.70
19948;BMP180;10135;50.702;7.276;2022-09-12T11:37:57;99376.00;;;25.80
19948;BMP180;10135;50.702;7.276;2022-09-12T11:40:22;99376.00;;;25.80
19948;BMP180;10135;50.702;7.276;2022-09-12T11:42:35;99378.00;;;25.90
19948;BMP180;10135;50.702;7.276;2022-09-12T11:44:48;99373.00;;;25.90
19948;BMP180;10135;50.702;7.276;2022-09-12T11:46:51;99375.00;;;26.00
19948;BMP180;10135;50.702;7.276;2022-09-12T11:49:03;99370.00;;;26.00
19948;BMP180;10135;50.702;7.276;2022-09-12T11:51:17;99364.00;;;26.00
19948;BMP180;10135;50.702;7.276;2022-09-12T11:53:25;99369.00;;;26.10
19948;BMP180;10135;50.702;7.276;2022-09-12T11:55:48;99371.00;;;26.10
19948;BMP180;10135;50.702;7.276;2022-09-12T11:57:56;99369.00;;;26.10
19948;BMP180;10135;50.702;7.276;2022-09-12T12:02:24;99369.00;;;26.20
19948;BMP180;10135;50.702;7.276;2022-09-12T12:04:37;99363.00;;;26.20
19948;BMP180;10135;50.702;7.276;2022-09-12T12:07:02;99364.00;;;26.30
19948;BMP180;10135;50.702;7.276;2022-09-12T12:09:03;99353.00;;;26.30
19948;BMP180;10135;50.702;7.276;2022-09-12T12:11:06;99354.00;;;26.30
19948;BMP180;10135;50.702;7.276;2022-09-12T12:13:49;99362.00;;;26.40
19948;BMP180;10135;50.702;7.276;2022-09-12T12:15:56;99353.00;;;26.40
19948;BMP180;10135;50.702;7.276;2022-09-12T12:18:14;99356.00;;;26.50
19948;BMP180;10135;50.702;7.276;2022-09-12T12:20:16;99350.00;;;26.50
19948;BMP180;10135;50.702;7.276;2022-09-12T12:22:22;99350.00;;;26.50
19948;BMP180;10135;50.702;7.276;2022-09-12T12:24:25;99354.00;;;26.60
19948;BMP180;10135;50.702;7.276;2022-09-12T12:26:41;99350.00;;;26.60
19948;BMP180;10135;50.702;7.276;2022-09-12T12:30:59;99347.00;;;26.70
19948;BMP180;10135;50.702;7.276;2022-09-12T12:36:27;99345.00;;;26.80
19948;BMP180;10135;50.702;7.276;2022-09-12T12:38:26;99343.00;;;26.90
19948;BMP180;10135;50.702;7.276;2022-09-12T12:40:30;99329.00;;;27.00
19948;BMP180;10135;50.702;7.276;2022-09-12T12:47:19;99330.00;;;27.10
19948;BMP180;10135;50.702;7.276;2022-09-12T12:49:26;99328.00;;;27.20
19948;BMP180;10135;50.702;7.276;2022-09-12T12:51:40;99320.00;;;27.20
19948;BMP180;10135;50.702;7.276;2022-09-12T12:53:42;99322.00;;;27.20
19948;BMP180;10135;50.702;7.276;2022-09-12T12:57:50;99315.00;;;27.30
19948;BMP180;10135;50.702;7.276;2022-09-12T13:01:59;99310.00;;;27.30
19948;BMP180;10135;50.702;7.276;2022-09-12T13:04:09;99304.00;;;27.40
19948;BMP180;10135;50.702;7.276;2022-09-12T13:06:45;99306.00;;;27.40
19948;BMP180;10135;50.702;7.276;2022-09-12T13:09:06;99305.00;;;27.50
19948;BMP180;10135;50.702;7.276;2022-09-12T13:11:14;99298.00;;;27.50
19948;BMP180;10135;50.702;7.276;2022-09-12T13:13:34;99295.00;;;27.50
19948;BMP180;10135;50.702;7.276;2022-09-12T13:17:40;99287.00;;;27.60
19948;BMP180;10135;50.702;7.276;2022-09-12T13:19:43;99288.00;;;27.60
19948;BMP180;10135;50.702;7.276;2022-09-12T13:22:03;99282.00;;;27.60
19948;BMP180;10135;50.702;7.276;2022-09-12T13:24:13;99279.00;;;27.60
19948;BMP180;10135;50.702;7.276;2022-09-12T13:26:23;99276.00;;;27.60
19948;BMP180;10135;50.702;7.276;2022-09-12T13:28:29;99272.00;;;27.60
19948;BMP180;10135;50.702;7.276;2022-09-12T13:30:34;99267.00;;;27.60
19948;BMP180;10135;50.702;7.276;2022-09-12T13:32:35;99275.00;;;27.60
19948;BMP180;10135;50.702;7.276;2022-09-12T13:35:24;99266.00;;;27.60
19948;BMP180;10135;50.702;7.276;2022-09-12T13:37:46;99269.00;;;27.60
19948;BMP180;10135;50.702;7.276;2022-09-12T13:40:31;99269.00;;;27.60
19948;BMP180;10135;50.702;7.276;2022-09-12T13:42:47;99259.00;;;27.70
19948;BMP180;10135;50.702;7.276;2022-09-12T13:44:56;99264.00;;;27.70
19948;BMP180;10135;50.702;7.276;2022-09-12T13:47:00;99261.00;;;27.70
19948;BMP180;10135;50.702;7.276;2022-09-12T13:51:29;99254.00;;;27.70
19948;BMP180;10135;50.702;7.276;2022-09-12T13:53:43;99260.00;;;27.60
19948;BMP180;10135;50.702;7.276;2022-09-12T13:55:50;99250.00;;;27.70
19948;BMP180;10135;50.702;7.276;2022-09-12T13:58:14;99259.00;;;27.70
19948;BMP180;10135;50.702;7.276;2022-09-12T14:00:18;99253.00;;;27.70
19948;BMP180;10135;50.702;7.276;2022-09-12T14:02:23;99248.00;;;27.70
19948;BMP180;10135;50.702;7.276;2022-09-12T14:04:25;99252.00;;;27.70
19948;BMP180;10135;50.702;7.276;2022-09-12T14:06:49;99248.00;;;27.70
19948;BMP180;10135;50.702;7.276;2022-09-12T14:08:50;99247.00;;;27.60
19948;BMP180;10135;50.702;7.276;2022-09-12T14:10:51;99247.00;;;27.60
19948;BMP180;10135;50.702;7.276;2022-09-12T14:12:55;99247.00;;;27.60
19948;BMP180;10135;50.702;7.276;2022-09-12T14:14:56;99246.00;;;27.60
19948;BMP180;10135;50.702;7.276;2022-09-12T14:16:58;99246.00;;;27.60
19948;BMP180;10135;50.702;7.276;2022-09-12T14:19:00;99246.00;;;27.60
19948;BMP180;10135;50.702;7.276;2022-09-12T14:23:30;99248.00;;;27.60
19948;BMP180;10135;50.702;7.276;2022-09-12T14:25:38;99251.00;;;27.60
19948;BMP180;10135;50.702;7.276;2022-09-12T14:27:55;99250.00;;;27.60
19948;BMP180;10135;50.702;7.276;2022-09-12T14:30:27;99246.00;;;27.60
19948;BMP180;10135;50.702;7.276;2022-09-12T14:32:32;99248.00;;;27.60
19948;BMP180;10135;50.702;7.276;2022-09-12T14:34:33;99243.00;;;27.60
19948;BMP180;10135;50.702;7.276;2022-09-12T14:36:48;99239.00;;;27.60
19948;BMP180;10135;50.702;7.276;2022-09-12T14:38:54;99229.00;;;27.60
19948;BMP180;10135;50.702;7.276;2022-09-12T14:41:09;99231.00;;;27.60
19948;BMP180;10135;50.702;7.276;2022-09-12T14:43:35;99233.00;;;27.60
19948;BMP180;10135;50.702;7.276;2022-09-12T14:45:36;99226.00;;;27.60
19948;BMP180;10135;50.702;7.276;2022-09-12T14:47:42;99224.00;;;27.60
19948;BMP180;10135;50.702;7.276;2022-09-12T14:49:48;99217.00;;;27.60
19948;BMP180;10135;50.702;7.276;2022-09-12T14:53:52;99213.00;;;27.60
19948;BMP180;10135;50.702;7.276;2022-09-12T14:56:11;99217.00;;;27.60
19948;BMP180;10135;50.702;7.276;2022-09-12T14:58:30;99212.00;;;27.60
19948;BMP180;10135;50.702;7.276;2022-09-12T15:00:31;99204.00;;;27.60
19948;BMP180;10135;50.702;7.276;2022-09-12T15:02:33;99205.00;;;27.50
19948;BMP180;10135;50.702;7.276;2022-09-12T15:04:44;99202.00;;;27.50
19948;BMP180;10135;50.702;7.276;2022-09-12T15:06:46;99198.00;;;27.50
19948;BMP180;10135;50.702;7.276;2022-09-12T15:08:47;99193.00;;;27.50
19948;BMP180;10135;50.702;7.276;2022-09-12T15:10:48;99195.00;;;27.50
19948;BMP180;10135;50.702;7.276;2022-09-12T15:13:14;99181.00;;;27.40
19948;BMP180;10135;50.702;7.276;2022-09-12T15:15:19;99184.00;;;27.50
19948;BMP180;10135;50.702;7.276;2022-09-12T15:17:20;99182.00;;;27.40
19948;BMP180;10135;50.702;7.276;2022-09-12T15:19:20;99178.00;;;27.40
19948;BMP180;10135;50.702;7.276;2022-09-12T15:21:21;99176.00;;;27.40
19948;BMP180;10135;50.702;7.276;2022-09-12T15:23:46;99181.00;;;27.40
19948;BMP180;10135;50.702;7.276;2022-09-12T15:25:47;99182.00;;;27.40
19948;BMP180;10135;50.702;7.276;2022-09-12T15:27:51;99183.00;;;27.40
19948;BMP180;10135;50.702;7.276;2022-09-12T15:29:53;99183.00;;;27.30
19948;BMP180;10135;50.702;7.276;2022-09-12T15:31:54;99183.00;;;27.30
19948;BMP180;10135;50.702;7.276;2022-09-12T15:33:57;99185.00;;;27.30
19948;BMP180;10135;50.702;7.276;2022-09-12T15:35:58;99183.00;;;27.30
19948;BMP180;10135;50.702;7.276;2022-09-12T15:37:59;99185.00;;;27.30
19948;BMP180;10135;50.702;7.276;2022-09-12T15:39:59;99178.00;;;27.30
19948;BMP180;10135;50.702;7.276;2022-09-12T15:42:01;99179.00;;;27.30
19948;BMP180;10135;50.702;7.276;2022-09-12T15:44:10;99181.00;;;27.30
19948;BMP180;10135;50.702;7.276;2022-09-12T15:46:13;99186.00;;;27.30
19948;BMP180;10135;50.702;7.276;2022-09-12T15:48:14;99179.00;;;27.30
19948;BMP180;10135;50.702;7.276;2022-09-12T15:50:15;99177.00;;;27.30
19948;BMP180;10135;50.702;7.276;2022-09-12T15:52:16;99174.00;;;27.30
19948;BMP180;10135;50.702;7.276;2022-09-12T15:54:18;99171.00;;;27.20
19948;BMP180;10135;50.702;7.276;2022-09-12T15:56:21;99177.00;;;27.20
19948;BMP180;10135;50.702;7.276;2022-09-12T15:58:22;99179.00;;;27.20
19948;BMP180;10135;50.702;7.276;2022-09-12T16:00:23;99175.00;;;27.20
19948;BMP180;10135;50.702;7.276;2022-09-12T16:02:23;99172.00;;;27.20
19948;BMP180;10135;50.702;7.276;2022-09-12T16:04:27;99166.00;;;27.20
19948;BMP180;10135;50.702;7.276;2022-09-12T16:06:28;99168.00;;;27.20
19948;BMP180;10135;50.702;7.276;2022-09-12T16:08:30;99170.00;;;27.20
19948;BMP180;10135;50.702;7.276;2022-09-12T16:10:31;99164.00;;;27.20
19948;BMP180;10135;50.702;7.276;2022-09-12T16:12:32;99153.00;;;27.20
19948;BMP180;10135;50.702;7.276;2022-09-12T16:14:32;99161.00;;;27.20
19948;BMP180;10135;50.702;7.276;2022-09-12T16:16:33;99152.00;;;27.10
19948;BMP180;10135;50.702;7.276;2022-09-12T16:18:34;99158.00;;;27.10
19948;BMP180;10135;50.702;7.276;2022-09-12T16:20:37;99157.00;;;27.10
19948;BMP180;10135;50.702;7.276;2022-09-12T16:22:39;99158.00;;;27.10
19948;BMP180;10135;50.702;7.276;2022-09-12T16:24:39;99155.00;;;27.10
19948;BMP180;10135;50.702;7.276;2022-09-12T16:26:40;99149.00;;;27.10
19948;BMP180;10135;50.702;7.276;2022-09-12T16:28:41;99147.00;;;27.00
19948;BMP180;10135;50.702;7.276;2022-09-12T16:30:42;99140.00;;;27.00
19948;BMP180;10135;50.702;7.276;2022-09-12T16:32:42;99137.00;;;27.00
19948;BMP180;10135;50.702;7.276;2022-09-12T16:34:43;99142.00;;;27.00
19948;BMP180;10135;50.702;7.276;2022-09-12T16:36:43;99139.00;;;27.00
19948;BMP180;10135;50.702;7.276;2022-09-12T16:38:51;99142.00;;;26.90
19948;BMP180;10135;50.702;7.276;2022-09-12T16:40:59;99139.00;;;26.90
19948;BMP180;10135;50.702;7.276;2022-09-12T16:43:00;99138.00;;;26.90
19948;BMP180;10135;50.702;7.276;2022-09-12T16:45:01;99139.00;;;26.90
19948;BMP180;10135;50.702;7.276;2022-09-12T16:47:02;99145.00;;;26.90
19948;BMP180;10135;50.702;7.276;2022-09-12T16:49:03;99142.00;;;26.90
19948;BMP180;10135;50.702;7.276;2022-09-12T16:51:05;99136.00;;;26.90
19948;BMP180;10135;50.702;7.276;2022-09-12T16:53:06;99134.00;;;26.90
19948;BMP180;10135;50.702;7.276;2022-09-12T16:55:07;99137.00;;;26.90
19948;BMP180;10135;50.702;7.276;2022-09-12T16:57:08;99133.00;;;26.90
19948;BMP180;10135;50.702;7.276;2022-09-12T16:59:09;99128.00;;;26.90
19948;BMP180;10135;50.702;7.276;2022-09-12T17:01:17;99119.00;;;26.90
19948;BMP180;10135;50.702;7.276;2022-09-12T17:03:17;99116.00;;;26.90
19948;BMP180;10135;50.702;7.276;2022-09-12T17:05:18;99112.00;;;26.80
19948;BMP180;10135;50.702;7.276;2022-09-12T17:07:20;99108.00;;;26.80
19948;BMP180;10135;50.702;7.276;2022-09-12T17:09:21;99118.00;;;26.80
19948;BMP180;10135;50.702;7.276;2022-09-12T17:11:28;99123.00;;;26.80
19948;BMP180;10135;50.702;7.276;2022-09-12T17:13:30;99124.00;;;26.80
19948;BMP180;10135;50.702;7.276;2022-09-12T17:15:31;99127.00;;;26.80
19948;BMP180;10135;50.702;7.276;2022-09-12T17:17:31;99128.00;;;26.80
19948;BMP180;10135;50.702;7.276;2022-09-12T17:19:32;99132.00;;;26.80
19948;BMP180;10135;50.702;7.276;2022-09-12T17:21:33;99129.00;;;26.70
19948;BMP180;10135;50.702;7.276;2022-09-12T17:23:35;99115.00;;;26.70
19948;BMP180;10135;50.702;7.276;2022-09-12T17:25:36;99114.00;;;26.70
19948;BMP180;10135;50.702;7.276;2022-09-12T17:27:36;99119.00;;;26.70
19948;BMP180;10135;50.702;7.276;2022-09-12T17:29:37;99116.00;;;26.70
19948;BMP180;10135;50.702;7.276;2022-09-12T17:31:38;99120.00;;;26.70
19948;BMP180;10135;50.702;7.276;2022-09-12T17:33:40;99117.00;;;26.70
19948;BMP180;10135;50.702;7.276;2022-09-12T17:35:41;99108.00;;;26.70
19948;BMP180;10135;50.702;7.276;2022-09-12T17:37:42;99111.00;;;26.60
19948;BMP180;10135;50.702;7.276;2022-09-12T17:39:42;99107.00;;;26.60
19948;BMP180;10135;50.702;7.276;2022-09-12T17:41:43;99112.00;;;26.60
19948;BMP180;10135;50.702;7.276;2022-09-12T17:43:52;99114.00;;;26.60
19948;BMP180;10135;50.702;7.276;2022-09-12T17:45:55;99121.00;;;26.60
19948;BMP180;10135;50.702;7.276;2022-09-12T17:47:57;99109.00;;;26.50
19948;BMP180;10135;50.702;7.276;2022-09-12T17:49:58;99120.00;;;26.50
19948;BMP180;10135;50.702;7.276;2022-09-12T17:51:59;99121.00;;;26.50
19948;BMP180;10135;50.702;7.276;2022-09-12T17:54:10;99127.00;;;26.40
19948;BMP180;10135;50.702;7.276;2022-09-12T17:56:12;99123.00;;;26.40
19948;BMP180;10135;50.702;7.276;2022-09-12T17:58:13;99124.00;;;26.40
19948;BMP180;10135;50.702;7.276;2022-09-12T18:00:13;99122.00;;;26.40
19948;BMP180;10135;50.702;7.276;2022-09-12T18:02:14;99117.00;;;26.30
19948;BMP180;10135;50.702;7.276;2022-09-12T18:04:16;99114.00;;;26.30
19948;BMP180;10135;50.702;7.276;2022-09-12T18:06:17;99116.00;;;26.30
19948;BMP180;10135;50.702;7.276;2022-09-12T18:08:19;99121.00;;;26.20
19948;BMP180;10135;50.702;7.276;2022-09-12T18:10:20;99119.00;;;26.20
19948;BMP180;10135;50.702;7.276;2022-09-12T18:12:21;99130.00;;;26.20
19948;BMP180;10135;50.702;7.276;2022-09-12T18:14:22;99132.00;;;26.10
19948;BMP180;10135;50.702;7.276;2022-09-12T18:16:23;99126.00;;;26.10
19948;BMP180;10135;50.702;7.276;2022-09-12T18:18:23;99127.00;;;26.00
19948;BMP180;10135;50.702;7.276;2022-09-12T18:20:24;99133.00;;;26.00
19948;BMP180;10135;50.702;7.276;2022-09-12T18:22:25;99134.00;;;26.00
19948;BMP180;10135;50.702;7.276;2022-09-12T18:24:25;99134.00;;;25.90
19948;BMP180;10135;50.702;7.276;2022-09-12T18:26:28;99130.00;;;25.90
19948;BMP180;10135;50.702;7.276;2022-09-12T18:28:36;99132.00;;;25.80
19948;BMP180;10135;50.702;7.276;2022-09-12T18:30:37;99126.00;;;25.80
19948;BMP180;10135;50.702;7.276;2022-09-12T18:32:37;99119.00;;;25.70
19948;BMP180;10135;50.702;7.276;2022-09-12T18:34:38;99115.00;;;25.70
19948;BMP180;10135;50.702;7.276;2022-09-12T18:36:45;99115.00;;;25.60
19948;BMP180;10135;50.702;7.276;2022-09-12T18:38:46;99117.00;;;25.60
19948;BMP180;10135;50.702;7.276;2022-09-12T18:40:47;99117.00;;;25.60
19948;BMP180;10135;50.702;7.276;2022-09-12T18:42:48;99121.00;;;25.50
19948;BMP180;10135;50.702;7.276;2022-09-12T18:44:49;99120.00;;;25.50